createdAt,value
2019-05-18T00:00:10.610Z,93.97
2019-05-18T00:02:39.192Z,90.90
2019-05-18T00:05:08.364Z,95.38
2019-05-18T00:07:36.956Z,88.35
2019-05-18T00:10:08.554Z,88.15
2019-05-18T00:12:37.114Z,95.92
2019-05-18T00:15:10.099Z,103.53
2019-05-18T00:17:38.664Z,99.42
2019-05-18T00:20:10.350Z,116.90
2019-05-18T00:22:38.862Z,123.92
2019-05-18T00:25:07.494Z,100.87
2019-05-18T00:27:36.040Z,106.20
2019-05-18T00:30:07.601Z,105.15
2019-05-18T00:32:36.088Z,101.60
2019-05-18T00:35:07.266Z,89.83
2019-05-18T00:37:35.819Z,99.27
2019-05-18T00:40:06.457Z,90.42
2019-05-18T00:42:35.012Z,87.07
2019-05-18T00:45:04.647Z,93.60
2019-05-18T00:47:41.548Z,91.00
2019-05-18T00:50:03.632Z,104.83
2019-05-18T00:52:32.118Z,89.00
2019-05-18T00:55:00.610Z,76.17
2019-05-18T00:57:29.158Z,81.85
2019-05-18T00:59:57.647Z,73.00
2019-05-18T01:02:26.129Z,81.90
2019-05-18T01:04:54.623Z,67.42
2019-05-18T01:07:23.134Z,75.07
2019-05-18T01:09:51.677Z,79.82
2019-05-18T01:12:20.149Z,75.00
2019-05-18T01:14:48.705Z,74.10
2019-05-18T01:17:17.284Z,62.90
2019-05-18T01:19:45.780Z,64.37
2019-05-18T01:22:14.284Z,67.40
2019-05-18T01:24:42.833Z,69.37
2019-05-18T01:27:11.347Z,75.70
2019-05-18T01:29:39.820Z,74.55
2019-05-18T01:32:08.309Z,72.25
2019-05-18T01:34:36.818Z,71.70
2019-05-18T01:37:05.319Z,76.87
2019-05-18T01:39:33.863Z,77.67
2019-05-18T01:42:02.385Z,79.05
2019-05-18T01:44:30.854Z,76.90
2019-05-18T01:46:59.347Z,71.97
2019-05-18T01:49:27.859Z,76.37
2019-05-18T01:51:56.363Z,83.20
2019-05-18T01:54:24.825Z,80.47
2019-05-18T01:56:53.311Z,76.10
2019-05-18T01:59:21.823Z,72.27
2019-05-18T02:01:50.312Z,77.03
2019-05-18T02:04:18.812Z,75.87
2019-05-18T02:06:47.302Z,75.12
2019-05-18T02:09:15.844Z,86.02
2019-05-18T02:11:44.327Z,105.17
2019-05-18T02:14:12.839Z,100.33
2019-05-18T02:16:41.325Z,96.60
2019-05-18T02:19:09.830Z,106.14
2019-05-18T02:21:38.347Z,116.47
2019-05-18T02:24:06.880Z,125.62
2019-05-18T02:26:35.512Z,106.07
2019-05-18T02:29:04.904Z,103.20
2019-05-18T02:31:33.416Z,81.35
2019-05-18T02:34:01.944Z,82.47
2019-05-18T02:36:30.441Z,86.53
2019-05-18T02:38:58.924Z,81.82
2019-05-18T02:41:27.400Z,82.30
2019-05-18T02:43:55.891Z,77.65
2019-05-18T02:46:24.379Z,72.03
2019-05-18T02:48:52.942Z,62.67
2019-05-18T02:51:21.475Z,63.50
2019-05-18T02:53:49.959Z,72.47
2019-05-18T02:56:18.465Z,82.30
2019-05-18T02:58:46.937Z,84.15
2019-05-18T03:01:15.447Z,83.40
2019-05-18T03:03:43.924Z,71.83
2019-05-18T03:06:12.435Z,82.10
2019-05-18T03:08:41.090Z,74.47
2019-05-18T03:11:09.661Z,76.02
2019-05-18T03:13:38.292Z,80.42
2019-05-18T03:16:06.772Z,79.55
2019-05-18T03:18:35.325Z,79.40
2019-05-18T03:21:03.875Z,76.82
2019-05-18T03:23:32.443Z,85.22
2019-05-18T03:26:00.916Z,85.20
2019-05-18T03:28:29.427Z,104.95
2019-05-18T03:30:57.935Z,113.00
2019-05-18T03:33:29.376Z,109.57
2019-05-18T03:35:56.634Z,93.65
2019-05-18T03:38:25.150Z,91.40
2019-05-18T03:40:53.629Z,103.97
2019-05-18T03:43:22.135Z,93.78
2019-05-18T03:45:50.609Z,83.33
2019-05-18T03:48:19.112Z,86.82
2019-05-18T03:50:47.584Z,79.20
2019-05-18T03:53:18.229Z,67.27
2019-05-18T03:55:46.279Z,69.58
2019-05-18T03:58:14.901Z,53.87
2019-05-18T04:00:44.314Z,59.38
2019-05-18T04:03:12.809Z,66.47
2019-05-18T04:05:41.279Z,60.52
2019-05-18T04:08:09.795Z,72.50
2019-05-18T04:10:38.322Z,62.45
2019-05-18T04:13:06.771Z,56.88
2019-05-18T04:15:35.273Z,55.73
2019-05-18T04:18:04.858Z,52.67
2019-05-18T04:20:33.366Z,186.52
2019-05-18T04:23:01.841Z,95.83
2019-05-18T04:25:30.345Z,54.83
2019-05-18T04:27:58.825Z,48.45
2019-05-18T04:30:27.314Z,42.80
2019-05-18T04:32:55.797Z,45.80
2019-05-18T04:35:24.297Z,52.00
2019-05-18T04:37:52.804Z,50.65
2019-05-18T04:40:21.425Z,44.27
2019-05-18T04:42:49.926Z,44.48
2019-05-18T04:45:18.472Z,44.55
2019-05-18T04:47:48.661Z,42.08
2019-05-18T04:50:17.220Z,40.73
2019-05-18T04:52:45.701Z,41.43
2019-05-18T04:55:14.285Z,49.30
2019-05-18T04:57:42.750Z,60.27
2019-05-18T05:00:12.005Z,49.03
2019-05-18T05:02:40.471Z,47.43
2019-05-18T05:05:09.113Z,44.97
2019-05-18T05:07:37.595Z,34.78
2019-05-18T05:10:07.321Z,34.92
2019-05-18T05:12:35.802Z,32.65
2019-05-18T05:15:05.783Z,38.17
2019-05-18T05:17:34.260Z,34.88
2019-05-18T05:20:03.237Z,32.85
2019-05-18T05:22:31.725Z,31.12
2019-05-18T05:25:00.237Z,32.35
2019-05-18T05:27:28.716Z,35.25
2019-05-18T05:29:57.271Z,28.20
2019-05-18T05:32:25.760Z,30.08
2019-05-18T05:34:54.220Z,25.70
2019-05-18T05:37:31.741Z,28.67
2019-05-18T05:40:00.289Z,31.23
2019-05-18T05:42:28.804Z,29.52
2019-05-18T05:44:57.318Z,26.90
2019-05-18T05:47:25.820Z,27.30
2019-05-18T05:49:54.306Z,28.80
2019-05-18T05:52:22.880Z,24.70
2019-05-18T05:54:51.357Z,25.05
2019-05-18T05:57:19.848Z,24.10
2019-05-18T05:59:48.370Z,23.77
2019-05-18T06:02:16.805Z,23.10
2019-05-18T06:04:45.286Z,22.07
2019-05-18T06:07:13.775Z,24.65
2019-05-18T06:09:42.249Z,20.90
2019-05-18T06:12:10.821Z,21.47
2019-05-18T06:14:39.302Z,112.12
2019-05-18T06:17:08.584Z,34.43
2019-05-18T06:19:37.187Z,21.30
2019-05-18T06:22:05.683Z,26.00
2019-05-18T06:24:34.162Z,20.37
2019-05-18T06:27:02.634Z,21.50
2019-05-18T06:29:31.139Z,24.87
2019-05-18T06:31:59.617Z,20.32
2019-05-18T06:34:28.108Z,46.50
2019-05-18T06:36:56.598Z,18.48
2019-05-18T06:39:25.065Z,23.18
2019-05-18T06:41:53.550Z,17.82
2019-05-18T06:44:22.043Z,25.63
2019-05-18T06:46:50.538Z,16.57
2019-05-18T06:49:19.014Z,17.67
2019-05-18T06:51:47.519Z,13.55
2019-05-18T06:54:16.060Z,14.65
2019-05-18T06:56:44.997Z,18.77
2019-05-18T06:59:16.439Z,17.80
2019-05-18T07:01:45.145Z,16.05
2019-05-18T07:04:13.619Z,21.40
2019-05-18T07:06:42.185Z,22.90
2019-05-18T07:09:14.320Z,26.62
2019-05-18T07:11:43.024Z,115.67
2019-05-18T07:14:24.983Z,18.37
2019-05-18T07:16:41.807Z,13.87
2019-05-18T07:19:10.466Z,100.40
2019-05-18T07:21:38.946Z,43.70
2019-05-18T07:24:07.452Z,19.40
2019-05-18T07:26:36.005Z,29.00
2019-05-18T07:29:05.790Z,19.32
2019-05-18T07:31:34.473Z,22.17
2019-05-18T07:34:02.967Z,20.20
2019-05-18T07:36:33.083Z,30.32
2019-05-18T07:39:01.600Z,16.57
2019-05-18T07:41:30.077Z,20.23
2019-05-18T07:43:58.580Z,17.17
2019-05-18T07:46:27.092Z,18.47
2019-05-18T07:48:55.557Z,25.12
2019-05-18T07:51:36.349Z,20.13
2019-05-18T07:53:54.309Z,35.30
2019-05-18T07:56:22.783Z,23.73
2019-05-18T07:58:51.295Z,24.15
2019-05-18T08:01:19.763Z,19.90
2019-05-18T08:03:48.267Z,12.53
2019-05-18T08:06:16.744Z,27.60
2019-05-18T08:08:45.257Z,15.72
2019-05-18T08:11:13.727Z,29.60
2019-05-18T08:13:42.217Z,51.77
2019-05-18T08:16:10.687Z,17.42
2019-05-18T08:18:39.219Z,13.43
2019-05-18T08:21:07.696Z,28.92
2019-05-18T08:23:36.186Z,14.00
2019-05-18T08:26:04.731Z,25.40
2019-05-18T08:28:33.238Z,28.27
2019-05-18T08:31:01.817Z,42.50
2019-05-18T08:33:30.369Z,20.43
2019-05-18T08:35:58.854Z,15.70
2019-05-18T08:38:27.336Z,10.78
2019-05-18T08:40:55.843Z,22.82
2019-05-18T08:43:24.326Z,16.15
2019-05-18T08:45:52.834Z,14.65
2019-05-18T08:48:21.341Z,13.85
2019-05-18T08:50:49.824Z,10.40
2019-05-18T08:53:18.321Z,9.60
2019-05-18T08:55:46.830Z,12.03
2019-05-18T08:58:15.312Z,10.23
2019-05-18T09:00:43.807Z,21.00
2019-05-18T09:03:12.325Z,15.60
2019-05-18T09:05:41.769Z,12.05
2019-05-18T09:08:10.247Z,13.98
2019-05-18T09:10:38.736Z,10.82
2019-05-18T09:13:07.210Z,16.52
2019-05-18T09:15:35.794Z,12.98
2019-05-18T09:18:05.215Z,14.53
2019-05-18T09:20:33.754Z,17.65
2019-05-18T09:23:02.274Z,11.50
2019-05-18T09:25:30.763Z,26.68
2019-05-18T09:27:59.241Z,23.57
2019-05-18T09:30:27.757Z,11.17
2019-05-18T09:32:56.235Z,18.35
2019-05-18T09:35:24.721Z,11.78
2019-05-18T09:37:54.753Z,20.32
2019-05-18T09:40:23.372Z,22.90
2019-05-18T09:42:51.862Z,10.23
2019-05-18T09:45:20.765Z,9.55
2019-05-18T09:47:49.339Z,10.70
2019-05-18T09:50:18.698Z,8.70
2019-05-18T09:52:47.174Z,10.68
2019-05-18T09:55:16.680Z,9.23
2019-05-18T09:57:45.168Z,9.83
2019-05-18T10:00:15.254Z,9.85
2019-05-18T10:02:43.809Z,41.93
2019-05-18T10:05:12.668Z,9.50
2019-05-18T10:07:41.102Z,10.15
2019-05-18T10:10:10.091Z,8.64
2019-05-18T10:12:38.801Z,8.50
2019-05-18T10:15:08.900Z,10.00
2019-05-18T10:17:37.458Z,12.93
2019-05-18T10:20:07.794Z,9.33
2019-05-18T10:22:36.291Z,12.28
2019-05-18T10:25:07.277Z,9.40
2019-05-18T10:27:35.718Z,10.93
2019-05-18T10:30:08.730Z,11.33
2019-05-18T10:32:37.302Z,7.70
2019-05-18T10:35:08.833Z,7.78
2019-05-18T10:37:37.812Z,7.87
2019-05-18T10:40:09.230Z,8.73
2019-05-18T10:42:37.693Z,7.25
2019-05-18T10:45:07.432Z,6.95
2019-05-18T10:47:35.945Z,6.90
2019-05-18T10:50:09.252Z,8.78
2019-05-18T10:52:37.814Z,7.17
2019-05-18T10:55:08.096Z,7.92
2019-05-18T10:57:36.678Z,7.78
2019-05-18T11:00:09.927Z,7.78
2019-05-18T11:02:38.383Z,7.72
2019-05-18T11:05:09.632Z,5.90
2019-05-18T11:07:38.187Z,7.92
2019-05-18T11:10:08.797Z,8.25
2019-05-18T11:12:37.332Z,6.80
2019-05-18T11:15:08.161Z,5.92
2019-05-18T11:17:36.618Z,6.03
2019-05-18T11:20:09.400Z,6.35
2019-05-18T11:22:38.379Z,5.62
2019-05-18T11:25:08.753Z,5.75
2019-05-18T11:27:37.373Z,6.03
2019-05-18T11:30:08.635Z,6.00
2019-05-18T11:32:37.814Z,6.45
2019-05-18T11:35:07.816Z,8.93
2019-05-18T11:37:36.357Z,6.65
2019-05-18T11:40:10.313Z,5.67
2019-05-18T11:42:43.183Z,9.08
2019-05-18T11:45:14.815Z,7.28
2019-05-18T11:50:12.541Z,31.50
2019-05-18T11:52:41.120Z,8.95
2019-05-18T11:55:09.843Z,7.06
2019-05-18T11:57:38.336Z,7.90
2019-05-18T12:00:09.322Z,9.57
2019-05-18T12:02:37.888Z,8.80
2019-05-18T12:05:07.869Z,10.30
2019-05-18T12:07:36.415Z,10.08
2019-05-18T12:10:08.468Z,6.42
2019-05-18T12:12:37.027Z,6.83
2019-05-18T12:15:07.458Z,9.30
2019-05-18T12:17:35.970Z,5.80
2019-05-18T12:20:09.145Z,8.80
2019-05-18T12:22:37.753Z,5.37
2019-05-18T12:25:09.870Z,7.78
2019-05-18T12:27:38.436Z,6.33
2019-05-18T12:30:10.748Z,7.87
2019-05-18T12:32:39.258Z,8.15
2019-05-18T12:35:10.860Z,6.00
2019-05-18T12:37:39.364Z,7.50
2019-05-18T12:40:09.049Z,5.10
2019-05-18T12:42:37.847Z,9.30
2019-05-18T12:48:34.028Z,7.43
2019-05-18T12:51:02.532Z,12.47
2019-05-18T12:53:31.005Z,13.30
2019-05-18T12:55:59.480Z,9.83
2019-05-18T12:58:28.018Z,5.83
2019-05-18T13:00:56.572Z,5.83
2019-05-18T13:03:25.091Z,12.95
2019-05-18T13:05:53.590Z,12.37
2019-05-18T13:08:22.077Z,7.20
2019-05-18T13:10:50.625Z,9.63
2019-05-18T13:13:19.041Z,9.17
2019-05-18T13:15:47.615Z,7.78
2019-05-18T13:18:16.096Z,11.73
2019-05-18T13:20:46.333Z,7.77
2019-05-18T13:23:14.810Z,8.30
2019-05-18T13:25:43.310Z,7.20
2019-05-18T13:28:11.801Z,7.55
2019-05-18T13:30:40.371Z,7.85
2019-05-18T13:33:08.829Z,6.37
2019-05-18T13:35:37.821Z,7.70
2019-05-18T13:38:06.448Z,7.60
2019-05-18T13:40:34.922Z,5.92
2019-05-18T13:43:03.500Z,6.28
2019-05-18T13:45:32.099Z,8.50
2019-05-18T13:48:00.586Z,85.25
2019-05-18T13:50:29.159Z,16.37
2019-05-18T13:52:57.630Z,7.65
2019-05-18T13:55:26.689Z,7.55
2019-05-18T13:57:55.188Z,7.03
2019-05-18T14:00:23.749Z,6.47
2019-05-18T14:02:52.286Z,6.80
2019-05-18T14:05:21.238Z,6.77
2019-05-18T14:07:49.711Z,19.67
2019-05-18T14:10:18.513Z,8.15
2019-05-18T14:12:47.115Z,5.12
2019-05-18T14:15:15.705Z,12.63
2019-05-18T14:17:44.226Z,6.03
2019-05-18T14:20:13.134Z,5.85
2019-05-18T14:22:41.638Z,6.30
2019-05-18T14:25:19.457Z,4.70
2019-05-18T14:27:41.046Z,5.47
2019-05-18T14:30:11.540Z,4.90
2019-05-18T14:32:40.125Z,5.17
2019-05-18T14:35:09.034Z,5.37
2019-05-18T14:37:37.548Z,16.20
2019-05-18T14:40:08.273Z,5.78
2019-05-18T14:42:36.830Z,5.50
2019-05-18T14:45:08.520Z,5.72
2019-05-18T14:50:06.230Z,5.45
2019-05-18T14:52:34.785Z,7.22
2019-05-18T14:55:03.670Z,5.40
2019-05-18T14:57:32.233Z,6.28
2019-05-18T15:00:02.397Z,8.58
2019-05-18T15:02:33.188Z,5.07
2019-05-18T15:05:02.263Z,9.15
2019-05-18T15:07:30.848Z,5.42
2019-05-18T15:09:59.459Z,5.37
2019-05-18T15:12:28.000Z,5.50
2019-05-18T15:14:56.476Z,5.47
2019-05-18T15:17:24.953Z,6.20
2019-05-18T15:19:53.496Z,7.95
2019-05-18T15:22:21.996Z,5.95
2019-05-18T15:24:50.483Z,8.33
2019-05-18T15:27:18.954Z,9.20
2019-05-18T15:29:47.460Z,9.90
2019-05-18T15:32:15.964Z,6.40
2019-05-18T15:34:44.431Z,7.33
2019-05-18T15:37:12.940Z,6.78
2019-05-18T15:39:41.400Z,6.85
2019-05-18T15:42:13.314Z,7.92
2019-05-18T15:44:41.792Z,9.53
2019-05-18T15:47:10.464Z,13.65
2019-05-18T15:49:38.980Z,10.98
2019-05-18T15:52:07.438Z,14.87
2019-05-18T15:54:36.361Z,15.13
2019-05-18T15:57:05.112Z,15.63
2019-05-18T15:59:34.392Z,13.13
2019-05-18T16:02:06.478Z,14.45
2019-05-18T16:04:33.962Z,13.83
2019-05-18T16:07:02.459Z,24.25
2019-05-18T16:09:30.951Z,22.25
2019-05-18T16:11:59.420Z,20.15
2019-05-18T16:14:27.920Z,28.27
2019-05-18T16:16:56.395Z,39.73
2019-05-18T16:19:24.975Z,52.23
2019-05-18T16:21:53.499Z,43.05
2019-05-18T16:24:22.061Z,30.65
2019-05-18T16:26:50.609Z,30.08
2019-05-18T16:29:19.156Z,40.60
2019-05-18T16:31:47.603Z,33.00
2019-05-18T16:34:16.093Z,35.23
2019-05-18T16:36:44.563Z,35.60
2019-05-18T16:39:13.121Z,47.97
2019-05-18T16:41:41.602Z,47.43
2019-05-18T16:44:10.111Z,38.30
2019-05-18T16:46:38.589Z,42.17
2019-05-18T16:49:07.153Z,95.50
2019-05-18T16:51:35.641Z,101.43
2019-05-18T16:54:04.889Z,74.55
2019-05-18T16:56:35.550Z,74.95
2019-05-18T16:59:04.736Z,77.75
2019-05-18T17:01:33.229Z,55.78
2019-05-18T17:04:01.797Z,57.88
2019-05-18T17:06:30.285Z,35.70
2019-05-18T17:08:58.844Z,31.05
2019-05-18T17:11:27.319Z,26.05
2019-05-18T17:13:55.800Z,24.95
2019-05-18T17:16:24.278Z,25.60
2019-05-18T17:18:52.778Z,27.98
2019-05-18T17:21:21.252Z,31.60
2019-05-18T17:23:49.773Z,32.03
2019-05-18T17:26:18.311Z,30.35
2019-05-18T17:28:46.796Z,33.80
2019-05-18T17:31:15.280Z,34.15
2019-05-18T17:33:43.759Z,35.13
2019-05-18T17:36:12.277Z,33.50
2019-05-18T17:38:40.781Z,37.23
2019-05-18T17:41:09.316Z,49.38
2019-05-18T17:43:37.896Z,88.37
2019-05-18T17:46:06.410Z,74.93
2019-05-18T17:48:34.937Z,56.80
2019-05-18T17:51:03.448Z,55.27
2019-05-18T17:53:31.958Z,56.53
2019-05-18T17:56:00.445Z,56.70
2019-05-18T17:58:28.925Z,55.92
2019-05-18T18:00:57.406Z,50.70
2019-05-18T18:03:25.914Z,50.90
2019-05-18T18:05:54.395Z,52.08
2019-05-18T18:08:22.905Z,54.08
2019-05-18T18:10:53.709Z,59.58
2019-05-18T18:13:22.296Z,60.50
2019-05-18T18:15:50.764Z,61.03
2019-05-18T18:18:19.271Z,55.43
2019-05-18T18:20:47.819Z,56.00
2019-05-18T18:23:16.325Z,52.03
2019-05-18T18:25:44.810Z,45.45
2019-05-18T18:28:13.656Z,31.97
2019-05-18T18:30:42.133Z,38.65
2019-05-18T18:33:10.708Z,39.73
2019-05-18T18:35:39.784Z,38.40
2019-05-18T18:38:08.441Z,40.17
2019-05-18T18:40:36.951Z,43.35
2019-05-18T18:43:05.421Z,47.70
2019-05-18T18:45:33.998Z,52.67
2019-05-18T18:48:02.560Z,63.33
2019-05-18T18:50:33.163Z,71.25
2019-05-18T18:53:01.635Z,78.20
2019-05-18T18:55:30.149Z,81.17
2019-05-18T18:57:58.633Z,82.80
2019-05-18T19:00:27.146Z,85.60
2019-05-18T19:02:55.623Z,81.82
2019-05-18T19:05:24.104Z,87.40
2019-05-18T19:07:52.594Z,88.95
2019-05-18T19:10:21.078Z,78.45
2019-05-18T19:12:49.605Z,82.97
2019-05-18T19:15:18.827Z,90.10
2019-05-18T19:17:47.348Z,94.15
2019-05-18T19:20:16.003Z,94.90
2019-05-18T19:22:44.517Z,111.08
2019-05-18T19:25:14.707Z,124.62
2019-05-18T19:27:54.074Z,111.67
2019-05-18T19:30:13.798Z,100.58
2019-05-18T19:32:42.300Z,125.95
2019-05-18T19:35:10.941Z,133.97
2019-05-18T19:37:39.415Z,99.42
2019-05-18T19:40:09.475Z,74.25
2019-05-18T19:42:38.088Z,73.12
2019-05-18T19:45:08.837Z,58.60
2019-05-18T19:47:37.338Z,50.93
2019-05-18T19:50:07.872Z,46.07
2019-05-18T19:52:36.363Z,44.85
2019-05-18T19:55:06.579Z,47.98
2019-05-18T19:57:35.067Z,42.38
2019-05-18T20:00:05.724Z,42.43
2019-05-18T20:02:34.246Z,142.27
2019-05-18T20:05:08.466Z,205.12
2019-05-18T20:07:36.019Z,54.18
2019-05-18T20:10:10.434Z,48.50
2019-05-18T20:12:38.940Z,65.50
2019-05-18T20:15:09.654Z,52.20
2019-05-18T20:17:38.228Z,47.77
2019-05-18T20:20:08.447Z,52.43
2019-05-18T20:22:36.922Z,50.50
2019-05-18T20:25:06.066Z,67.97
2019-05-18T20:27:34.649Z,68.62
2019-05-18T20:30:03.211Z,64.53
2019-05-18T20:32:31.679Z,62.55
2019-05-18T20:35:00.164Z,44.75
2019-05-18T20:37:28.678Z,80.92
2019-05-18T20:39:57.137Z,63.17
2019-05-18T20:42:25.654Z,78.55
2019-05-18T20:44:54.162Z,92.23
2019-05-18T20:47:22.690Z,154.53
2019-05-18T20:49:51.172Z,131.20
2019-05-18T20:52:19.666Z,115.00
2019-05-18T20:54:48.156Z,104.07
2019-05-18T20:57:16.648Z,93.52
2019-05-18T20:59:45.131Z,102.55
2019-05-18T21:02:16.004Z,111.47
2019-05-18T21:04:44.484Z,131.73
2019-05-18T21:07:16.025Z,142.17
2019-05-18T21:09:44.533Z,156.85
2019-05-18T21:12:16.234Z,152.73
2019-05-18T21:14:44.709Z,162.03
2019-05-18T21:17:13.226Z,162.75
2019-05-18T21:19:41.711Z,198.43
2019-05-18T21:22:10.198Z,185.93
2019-05-18T21:24:38.697Z,178.38
2019-05-18T21:27:07.173Z,167.35
2019-05-18T21:29:35.663Z,149.32
2019-05-18T21:32:04.726Z,102.82
2019-05-18T21:34:33.252Z,113.40
2019-05-18T21:37:01.734Z,112.25
2019-05-18T21:39:30.225Z,120.77
2019-05-18T21:41:58.740Z,128.40
2019-05-18T21:44:27.264Z,93.20
2019-05-18T21:46:55.751Z,103.47
2019-05-18T21:49:24.246Z,100.65
2019-05-18T21:51:52.734Z,98.87
2019-05-18T21:54:21.291Z,99.32
2019-05-18T21:56:49.808Z,104.05
2019-05-18T21:59:18.294Z,118.97
2019-05-18T22:01:46.778Z,116.57
2019-05-18T22:04:15.420Z,115.90
2019-05-18T22:06:43.963Z,100.60
2019-05-18T22:09:12.445Z,111.92
2019-05-18T22:11:40.958Z,110.35
2019-05-18T22:14:09.438Z,114.74
2019-05-18T22:16:37.960Z,115.40
2019-05-18T22:19:06.451Z,121.35
2019-05-18T22:21:34.976Z,121.22
2019-05-18T22:24:03.532Z,120.67
2019-05-18T22:26:32.042Z,114.00
2019-05-18T22:29:00.521Z,112.62
2019-05-18T22:31:29.077Z,111.93
2019-05-18T22:33:57.599Z,88.12
2019-05-18T22:36:26.079Z,80.80
2019-05-18T22:38:54.593Z,83.37
2019-05-18T22:41:23.086Z,80.03
2019-05-18T22:43:51.665Z,82.78
2019-05-18T22:46:20.263Z,77.87
2019-05-18T22:48:48.747Z,74.27
2019-05-18T22:51:17.251Z,74.42
2019-05-18T22:53:46.649Z,70.32
2019-05-18T22:56:15.249Z,73.12
2019-05-18T22:58:43.762Z,75.12
2019-05-18T23:01:12.249Z,74.45
2019-05-18T23:03:40.802Z,79.60
2019-05-18T23:06:09.329Z,73.96
2019-05-18T23:08:37.875Z,69.07
2019-05-18T23:11:06.349Z,70.83
2019-05-18T23:13:34.861Z,75.95
2019-05-18T23:16:03.335Z,68.00
2019-05-18T23:18:31.839Z,74.45
2019-05-18T23:21:00.351Z,80.05
2019-05-18T23:23:28.839Z,101.78
2019-05-18T23:25:57.395Z,101.10
2019-05-18T23:28:25.875Z,90.13
2019-05-18T23:30:54.377Z,94.05
2019-05-18T23:33:22.856Z,90.30
2019-05-18T23:35:51.377Z,94.22
2019-05-18T23:38:19.860Z,104.50
2019-05-18T23:40:48.437Z,95.70
2019-05-18T23:43:16.972Z,91.12
2019-05-18T23:45:45.424Z,87.42
2019-05-18T23:48:13.938Z,87.62
2019-05-18T23:50:42.402Z,95.40
2019-05-18T23:53:10.897Z,137.45
2019-05-18T23:55:39.412Z,109.97
2019-05-18T23:58:07.900Z,118.87
